sensor_id;sensor_type;location;lat;lon;timestamp;P1;durP1;ratioP1;P2;durP2;ratioP2
17947;SDS011;9099;47.958;11.366;2024-03-25T00:00:45;1.58;;;0.68;;
17947;SDS011;9099;47.958;11.366;2024-03-25T00:03:13;0.82;;;0.82;;
17947;SDS011;9099;47.958;11.366;2024-03-25T00:05:39;1.52;;;0.70;;
17947;SDS011;9099;47.958;11.366;2024-03-25T00:08:06;1.73;;;0.80;;
17947;SDS011;9099;47.958;11.366;2024-03-25T00:10:32;2.20;;;0.77;;
17947;SDS011;9099;47.958;11.366;2024-03-25T00:12:59;0.65;;;0.65;;
17947;SDS011;9099;47.958;11.366;2024-03-25T00:15:25;1.25;;;0.77;;
17947;SDS011;9099;47.958;11.366;2024-03-25T00:17:52;1.20;;;0.80;;
17947;SDS011;9099;47.958;11.366;2024-03-25T00:20:19;1.35;;;0.90;;
17947;SDS011;9099;47.958;11.366;2024-03-25T00:22:47;1.42;;;0.75;;
17947;SDS011;9099;47.958;11.366;2024-03-25T00:25:13;1.83;;;0.90;;
17947;SDS011;9099;47.958;11.366;2024-03-25T00:27:42;1.30;;;0.90;;
17947;SDS011;9099;47.958;11.366;2024-03-25T00:30:08;1.38;;;0.90;;
17947;SDS011;9099;47.958;11.366;2024-03-25T00:32:35;1.67;;;1.08;;
17947;SDS011;9099;47.958;11.366;2024-03-25T00:35:01;1.10;;;0.80;;
17947;SDS011;9099;47.958;11.366;2024-03-25T00:37:30;1.73;;;0.88;;
17947;SDS011;9099;47.958;11.366;2024-03-25T00:39:56;1.00;;;0.77;;
17947;SDS011;9099;47.958;11.366;2024-03-25T00:42:23;1.88;;;1.20;;
17947;SDS011;9099;47.958;11.366;2024-03-25T00:44:48;0.85;;;0.80;;
17947;SDS011;9099;47.958;11.366;2024-03-25T00:47:15;0.95;;;0.90;;
17947;SDS011;9099;47.958;11.366;2024-03-25T00:49:41;1.00;;;0.75;;
17947;SDS011;9099;47.958;11.366;2024-03-25T00:52:08;1.60;;;0.80;;
17947;SDS011;9099;47.958;11.366;2024-03-25T00:54:35;1.00;;;0.98;;
17947;SDS011;9099;47.958;11.366;2024-03-25T00:57:02;1.50;;;1.00;;
17947;SDS011;9099;47.958;11.366;2024-03-25T00:59:28;0.77;;;0.60;;
17947;SDS011;9099;47.958;11.366;2024-03-25T01:01:55;1.85;;;0.80;;
17947;SDS011;9099;47.958;11.366;2024-03-25T01:04:22;1.63;;;0.70;;
17947;SDS011;9099;47.958;11.366;2024-03-25T01:06:49;1.33;;;0.90;;
17947;SDS011;9099;47.958;11.366;2024-03-25T01:09:15;0.80;;;0.80;;
17947;SDS011;9099;47.958;11.366;2024-03-25T01:11:43;1.08;;;0.98;;
17947;SDS011;9099;47.958;11.366;2024-03-25T01:14:09;2.10;;;0.90;;
17947;SDS011;9099;47.958;11.366;2024-03-25T01:16:36;0.70;;;0.70;;
17947;SDS011;9099;47.958;11.366;2024-03-25T01:19:02;1.10;;;0.80;;
17947;SDS011;9099;47.958;11.366;2024-03-25T01:21:28;0.60;;;0.60;;
17947;SDS011;9099;47.958;11.366;2024-03-25T01:23:55;0.75;;;0.60;;
17947;SDS011;9099;47.958;11.366;2024-03-25T01:26:22;0.85;;;0.60;;
17947;SDS011;9099;47.958;11.366;2024-03-25T01:28:49;0.50;;;0.50;;
17947;SDS011;9099;47.958;11.366;2024-03-25T01:31:16;0.60;;;0.60;;
17947;SDS011;9099;47.958;11.366;2024-03-25T01:33:42;0.50;;;0.50;;
17947;SDS011;9099;47.958;11.366;2024-03-25T01:36:09;0.50;;;0.50;;
17947;SDS011;9099;47.958;11.366;2024-03-25T01:38:41;1.05;;;0.60;;
17947;SDS011;9099;47.958;11.366;2024-03-25T01:41:08;0.45;;;0.43;;
17947;SDS011;9099;47.958;11.366;2024-03-25T01:43:34;0.70;;;0.50;;
17947;SDS011;9099;47.958;11.366;2024-03-25T01:46:02;0.52;;;0.52;;
17947;SDS011;9099;47.958;11.366;2024-03-25T01:48:30;0.47;;;0.47;;
17947;SDS011;9099;47.958;11.366;2024-03-25T01:50:57;1.20;;;0.70;;
17947;SDS011;9099;47.958;11.366;2024-03-25T01:53:24;0.60;;;0.60;;
17947;SDS011;9099;47.958;11.366;2024-03-25T01:55:52;0.50;;;0.50;;
17947;SDS011;9099;47.958;11.366;2024-03-25T01:58:21;0.68;;;0.68;;
17947;SDS011;9099;47.958;11.366;2024-03-25T02:00:50;1.15;;;0.73;;
17947;SDS011;9099;47.958;11.366;2024-03-25T02:03:18;1.05;;;0.43;;
17947;SDS011;9099;47.958;11.366;2024-03-25T02:05:46;1.42;;;0.80;;
17947;SDS011;9099;47.958;11.366;2024-03-25T02:08:15;0.98;;;0.90;;
17947;SDS011;9099;47.958;11.366;2024-03-25T02:10:45;0.70;;;0.70;;
17947;SDS011;9099;47.958;11.366;2024-03-25T02:13:12;2.05;;;0.90;;
17947;SDS011;9099;47.958;11.366;2024-03-25T02:15:40;1.35;;;0.60;;
17947;SDS011;9099;47.958;11.366;2024-03-25T02:18:06;1.25;;;0.80;;
17947;SDS011;9099;47.958;11.366;2024-03-25T02:20:34;0.70;;;0.70;;
17947;SDS011;9099;47.958;11.366;2024-03-25T02:23:00;0.82;;;0.70;;
17947;SDS011;9099;47.958;11.366;2024-03-25T02:25:28;1.38;;;0.80;;
17947;SDS011;9099;47.958;11.366;2024-03-25T02:27:59;1.00;;;0.90;;
17947;SDS011;9099;47.958;11.366;2024-03-25T02:30:26;1.60;;;0.90;;
17947;SDS011;9099;47.958;11.366;2024-03-25T02:32:52;0.73;;;0.73;;
17947;SDS011;9099;47.958;11.366;2024-03-25T02:35:19;0.80;;;0.80;;
17947;SDS011;9099;47.958;11.366;2024-03-25T02:37:46;1.10;;;0.95;;
17947;SDS011;9099;47.958;11.366;2024-03-25T02:40:13;1.92;;;1.08;;
17947;SDS011;9099;47.958;11.366;2024-03-25T02:42:39;0.68;;;0.68;;
17947;SDS011;9099;47.958;11.366;2024-03-25T02:45:08;0.98;;;0.98;;
17947;SDS011;9099;47.958;11.366;2024-03-25T02:47:34;0.93;;;0.80;;
17947;SDS011;9099;47.958;11.366;2024-03-25T02:50:01;2.75;;;0.88;;
17947;SDS011;9099;47.958;11.366;2024-03-25T02:52:27;2.20;;;1.20;;
17947;SDS011;9099;47.958;11.366;2024-03-25T02:54:54;0.82;;;0.82;;
17947;SDS011;9099;47.958;11.366;2024-03-25T02:57:20;1.63;;;1.02;;
17947;SDS011;9099;47.958;11.366;2024-03-25T02:59:47;1.13;;;0.82;;
17947;SDS011;9099;47.958;11.366;2024-03-25T03:02:14;2.15;;;1.10;;
17947;SDS011;9099;47.958;11.366;2024-03-25T03:04:41;1.00;;;0.90;;
17947;SDS011;9099;47.958;11.366;2024-03-25T03:07:07;1.58;;;1.00;;
17947;SDS011;9099;47.958;11.366;2024-03-25T03:09:34;1.42;;;0.98;;
17947;SDS011;9099;47.958;11.366;2024-03-25T03:12:00;1.60;;;1.10;;
17947;SDS011;9099;47.958;11.366;2024-03-25T03:14:27;1.75;;;1.20;;
17947;SDS011;9099;47.958;11.366;2024-03-25T03:16:53;2.45;;;1.20;;
17947;SDS011;9099;47.958;11.366;2024-03-25T03:19:24;1.50;;;1.10;;
17947;SDS011;9099;47.958;11.366;2024-03-25T03:21:50;2.28;;;1.38;;
17947;SDS011;9099;47.958;11.366;2024-03-25T03:24:17;2.00;;;1.10;;
17947;SDS011;9099;47.958;11.366;2024-03-25T03:26:43;2.38;;;1.17;;
17947;SDS011;9099;47.958;11.366;2024-03-25T03:29:10;2.33;;;1.23;;
17947;SDS011;9099;47.958;11.366;2024-03-25T03:31:36;1.67;;;1.10;;
17947;SDS011;9099;47.958;11.366;2024-03-25T03:34:03;2.53;;;1.30;;
17947;SDS011;9099;47.958;11.366;2024-03-25T03:36:30;2.05;;;1.00;;
17947;SDS011;9099;47.958;11.366;2024-03-25T03:38:57;1.20;;;1.00;;
17947;SDS011;9099;47.958;11.366;2024-03-25T03:41:23;1.35;;;1.25;;
17947;SDS011;9099;47.958;11.366;2024-03-25T03:43:50;1.35;;;1.25;;
17947;SDS011;9099;47.958;11.366;2024-03-25T03:46:15;2.08;;;1.13;;
17947;SDS011;9099;47.958;11.366;2024-03-25T03:48:42;3.40;;;1.20;;
17947;SDS011;9099;47.958;11.366;2024-03-25T03:51:08;2.22;;;1.08;;
17947;SDS011;9099;47.958;11.366;2024-03-25T03:53:37;1.30;;;1.20;;
17947;SDS011;9099;47.958;11.366;2024-03-25T03:56:03;0.93;;;0.85;;
17947;SDS011;9099;47.958;11.366;2024-03-25T03:58:31;2.00;;;1.05;;
17947;SDS011;9099;47.958;11.366;2024-03-25T04:00:57;1.48;;;1.15;;
17947;SDS011;9099;47.958;11.366;2024-03-25T04:03:24;0.93;;;0.93;;
17947;SDS011;9099;47.958;11.366;2024-03-25T04:05:50;1.85;;;1.00;;
17947;SDS011;9099;47.958;11.366;2024-03-25T04:08:17;1.30;;;1.20;;
17947;SDS011;9099;47.958;11.366;2024-03-25T04:10:45;1.38;;;0.90;;
17947;SDS011;9099;47.958;11.366;2024-03-25T04:13:12;1.30;;;1.20;;
17947;SDS011;9099;47.958;11.366;2024-03-25T04:15:38;2.08;;;1.20;;
17947;SDS011;9099;47.958;11.366;2024-03-25T04:18:06;1.33;;;0.90;;
17947;SDS011;9099;47.958;11.366;2024-03-25T04:20:35;1.02;;;1.02;;
17947;SDS011;9099;47.958;11.366;2024-03-25T04:23:05;1.20;;;1.00;;
17947;SDS011;9099;47.958;11.366;2024-03-25T04:25:32;1.63;;;1.33;;
17947;SDS011;9099;47.958;11.366;2024-03-25T04:28:01;1.17;;;1.08;;
17947;SDS011;9099;47.958;11.366;2024-03-25T04:30:26;2.20;;;1.67;;
17947;SDS011;9099;47.958;11.366;2024-03-25T04:32:53;1.70;;;1.23;;
17947;SDS011;9099;47.958;11.366;2024-03-25T04:35:19;1.70;;;1.40;;
17947;SDS011;9099;47.958;11.366;2024-03-25T04:37:46;2.10;;;1.40;;
17947;SDS011;9099;47.958;11.366;2024-03-25T04:40:12;1.77;;;1.10;;
17947;SDS011;9099;47.958;11.366;2024-03-25T04:42:38;2.47;;;1.20;;
17947;SDS011;9099;47.958;11.366;2024-03-25T04:45:06;1.75;;;1.10;;
17947;SDS011;9099;47.958;11.366;2024-03-25T04:47:32;3.92;;;1.55;;
17947;SDS011;9099;47.958;11.366;2024-03-25T04:49:58;1.63;;;1.27;;
17947;SDS011;9099;47.958;11.366;2024-03-25T04:52:24;1.80;;;1.50;;
17947;SDS011;9099;47.958;11.366;2024-03-25T04:54:50;1.95;;;1.30;;
17947;SDS011;9099;47.958;11.366;2024-03-25T04:57:16;2.13;;;1.10;;
17947;SDS011;9099;47.958;11.366;2024-03-25T04:59:42;1.40;;;1.25;;
17947;SDS011;9099;47.958;11.366;2024-03-25T05:02:10;3.95;;;1.33;;
17947;SDS011;9099;47.958;11.366;2024-03-25T05:04:36;1.40;;;1.27;;
17947;SDS011;9099;47.958;11.366;2024-03-25T05:07:02;1.58;;;1.17;;
17947;SDS011;9099;47.958;11.366;2024-03-25T05:09:28;2.03;;;1.25;;
17947;SDS011;9099;47.958;11.366;2024-03-25T05:11:54;1.40;;;1.23;;
17947;SDS011;9099;47.958;11.366;2024-03-25T05:14:20;2.53;;;1.30;;
17947;SDS011;9099;47.958;11.366;2024-03-25T05:16:46;2.85;;;1.30;;
17947;SDS011;9099;47.958;11.366;2024-03-25T05:19:13;2.23;;;1.10;;
17947;SDS011;9099;47.958;11.366;2024-03-25T05:21:39;2.45;;;1.35;;
17947;SDS011;9099;47.958;11.366;2024-03-25T05:24:05;2.30;;;1.40;;
17947;SDS011;9099;47.958;11.366;2024-03-25T05:26:31;2.15;;;1.33;;
17947;SDS011;9099;47.958;11.366;2024-03-25T05:28:57;1.67;;;1.50;;
17947;SDS011;9099;47.958;11.366;2024-03-25T05:31:23;4.65;;;1.33;;
17947;SDS011;9099;47.958;11.366;2024-03-25T05:33:49;2.08;;;1.27;;
17947;SDS011;9099;47.958;11.366;2024-03-25T05:36:16;1.85;;;1.10;;
17947;SDS011;9099;47.958;11.366;2024-03-25T05:38:42;1.33;;;1.20;;
17947;SDS011;9099;47.958;11.366;2024-03-25T05:41:08;2.22;;;1.30;;
17947;SDS011;9099;47.958;11.366;2024-03-25T05:43:34;1.80;;;1.30;;
17947;SDS011;9099;47.958;11.366;2024-03-25T05:46:00;1.65;;;1.40;;
17947;SDS011;9099;47.958;11.366;2024-03-25T05:48:26;1.52;;;1.38;;
17947;SDS011;9099;47.958;11.366;2024-03-25T05:50:59;1.50;;;1.20;;
17947;SDS011;9099;47.958;11.366;2024-03-25T05:53:27;1.42;;;1.35;;
17947;SDS011;9099;47.958;11.366;2024-03-25T05:55:54;1.88;;;1.42;;
17947;SDS011;9099;47.958;11.366;2024-03-25T05:58:20;2.67;;;1.58;;
17947;SDS011;9099;47.958;11.366;2024-03-25T06:00:46;1.55;;;1.20;;
17947;SDS011;9099;47.958;11.366;2024-03-25T06:03:13;2.05;;;1.38;;
17947;SDS011;9099;47.958;11.366;2024-03-25T06:05:39;1.90;;;1.30;;
17947;SDS011;9099;47.958;11.366;2024-03-25T06:08:05;2.78;;;1.27;;
17947;SDS011;9099;47.958;11.366;2024-03-25T06:10:36;1.15;;;1.00;;
17947;SDS011;9099;47.958;11.366;2024-03-25T06:13:02;1.70;;;1.13;;
17947;SDS011;9099;47.958;11.366;2024-03-25T06:15:29;1.33;;;0.98;;
17947;SDS011;9099;47.958;11.366;2024-03-25T06:17:55;1.42;;;1.10;;
17947;SDS011;9099;47.958;11.366;2024-03-25T06:20:21;1.05;;;1.05;;
17947;SDS011;9099;47.958;11.366;2024-03-25T06:22:47;0.80;;;0.80;;
17947;SDS011;9099;47.958;11.366;2024-03-25T06:25:13;1.40;;;1.00;;
17947;SDS011;9099;47.958;11.366;2024-03-25T06:27:40;2.63;;;1.27;;
17947;SDS011;9099;47.958;11.366;2024-03-25T06:30:07;2.25;;;1.25;;
17947;SDS011;9099;47.958;11.366;2024-03-25T06:32:57;1.20;;;1.10;;
17947;SDS011;9099;47.958;11.366;2024-03-25T06:35:42;1.42;;;1.13;;
17947;SDS011;9099;47.958;11.366;2024-03-25T06:38:08;1.17;;;1.08;;
17947;SDS011;9099;47.958;11.366;2024-03-25T06:40:34;1.70;;;1.00;;
17947;SDS011;9099;47.958;11.366;2024-03-25T06:43:02;1.33;;;1.05;;
17947;SDS011;9099;47.958;11.366;2024-03-25T06:45:28;2.45;;;1.10;;
17947;SDS011;9099;47.958;11.366;2024-03-25T06:47:54;1.30;;;1.17;;
17947;SDS011;9099;47.958;11.366;2024-03-25T06:50:20;1.55;;;1.00;;
17947;SDS011;9099;47.958;11.366;2024-03-25T06:52:46;1.15;;;1.02;;
17947;SDS011;9099;47.958;11.366;2024-03-25T06:55:12;1.63;;;1.17;;
17947;SDS011;9099;47.958;11.366;2024-03-25T06:57:38;1.60;;;1.10;;
17947;SDS011;9099;47.958;11.366;2024-03-25T07:00:06;1.00;;;1.00;;
17947;SDS011;9099;47.958;11.366;2024-03-25T07:02:33;1.35;;;1.20;;
17947;SDS011;9099;47.958;11.366;2024-03-25T07:04:59;1.45;;;1.17;;
17947;SDS011;9099;47.958;11.366;2024-03-25T07:07:25;1.20;;;1.10;;
17947;SDS011;9099;47.958;11.366;2024-03-25T07:09:51;0.88;;;0.88;;
17947;SDS011;9099;47.958;11.366;2024-03-25T07:12:17;0.90;;;0.80;;
17947;SDS011;9099;47.958;11.366;2024-03-25T07:14:44;1.67;;;1.13;;
17947;SDS011;9099;47.958;11.366;2024-03-25T07:17:11;0.98;;;0.93;;
17947;SDS011;9099;47.958;11.366;2024-03-25T07:19:37;1.30;;;1.10;;
17947;SDS011;9099;47.958;11.366;2024-03-25T07:22:03;1.38;;;0.90;;
17947;SDS011;9099;47.958;11.366;2024-03-25T07:24:29;1.10;;;0.90;;
17947;SDS011;9099;47.958;11.366;2024-03-25T07:26:55;1.13;;;1.00;;
17947;SDS011;9099;47.958;11.366;2024-03-25T07:29:21;1.20;;;1.10;;
17947;SDS011;9099;47.958;11.366;2024-03-25T07:31:47;1.30;;;1.10;;
17947;SDS011;9099;47.958;11.366;2024-03-25T07:34:15;2.33;;;1.05;;
17947;SDS011;9099;47.958;11.366;2024-03-25T07:36:41;1.15;;;0.90;;
17947;SDS011;9099;47.958;11.366;2024-03-25T07:39:07;1.10;;;0.98;;
17947;SDS011;9099;47.958;11.366;2024-03-25T07:41:35;1.25;;;1.15;;
17947;SDS011;9099;47.958;11.366;2024-03-25T07:44:01;1.40;;;1.10;;
17947;SDS011;9099;47.958;11.366;2024-03-25T07:46:26;1.27;;;1.10;;
17947;SDS011;9099;47.958;11.366;2024-03-25T07:48:52;1.38;;;1.02;;
17947;SDS011;9099;47.958;11.366;2024-03-25T07:51:23;1.42;;;1.10;;
17947;SDS011;9099;47.958;11.366;2024-03-25T07:53:50;1.58;;;1.20;;
17947;SDS011;9099;47.958;11.366;2024-03-25T07:56:16;1.52;;;1.00;;
17947;SDS011;9099;47.958;11.366;2024-03-25T07:58:42;1.45;;;1.02;;
17947;SDS011;9099;47.958;11.366;2024-03-25T08:01:08;1.85;;;1.27;;
17947;SDS011;9099;47.958;11.366;2024-03-25T08:03:34;1.35;;;1.10;;
17947;SDS011;9099;47.958;11.366;2024-03-25T08:06:00;1.38;;;1.10;;
17947;SDS011;9099;47.958;11.366;2024-03-25T08:08:28;1.98;;;1.30;;
17947;SDS011;9099;47.958;11.366;2024-03-25T08:10:54;1.13;;;1.00;;
17947;SDS011;9099;47.958;11.366;2024-03-25T08:13:20;1.35;;;1.15;;
17947;SDS011;9099;47.958;11.366;2024-03-25T08:15:46;1.10;;;1.00;;
17947;SDS011;9099;47.958;11.366;2024-03-25T08:18:12;1.45;;;1.30;;
17947;SDS011;9099;47.958;11.366;2024-03-25T08:20:38;1.20;;;1.10;;
17947;SDS011;9099;47.958;11.366;2024-03-25T08:23:04;1.60;;;1.00;;
17947;SDS011;9099;47.958;11.366;2024-03-25T08:25:31;1.33;;;1.13;;
17947;SDS011;9099;47.958;11.366;2024-03-25T08:27:57;1.30;;;1.20;;
17947;SDS011;9099;47.958;11.366;2024-03-25T08:30:24;1.20;;;1.10;;
17947;SDS011;9099;47.958;11.366;2024-03-25T08:32:50;1.38;;;1.27;;
17947;SDS011;9099;47.958;11.366;2024-03-25T08:35:16;1.30;;;1.20;;
17947;SDS011;9099;47.958;11.366;2024-03-25T08:37:42;1.08;;;0.98;;
17947;SDS011;9099;47.958;11.366;2024-03-25T08:40:08;3.45;;;1.20;;
17947;SDS011;9099;47.958;11.366;2024-03-25T08:42:36;0.80;;;0.80;;
17947;SDS011;9099;47.958;11.366;2024-03-25T08:45:02;0.90;;;0.80;;
17947;SDS011;9099;47.958;11.366;2024-03-25T08:47:29;1.33;;;1.20;;
17947;SDS011;9099;47.958;11.366;2024-03-25T08:49:54;1.30;;;1.20;;
17947;SDS011;9099;47.958;11.366;2024-03-25T08:52:20;1.00;;;0.95;;
17947;SDS011;9099;47.958;11.366;2024-03-25T08:54:46;0.95;;;0.95;;
17947;SDS011;9099;47.958;11.366;2024-03-25T08:57:12;1.13;;;1.02;;
17947;SDS011;9099;47.958;11.366;2024-03-25T08:59:39;1.45;;;1.10;;
17947;SDS011;9099;47.958;11.366;2024-03-25T09:02:05;1.10;;;1.00;;
17947;SDS011;9099;47.958;11.366;2024-03-25T09:04:32;1.20;;;1.10;;
17947;SDS011;9099;47.958;11.366;2024-03-25T09:06:58;1.20;;;1.10;;
17947;SDS011;9099;47.958;11.366;2024-03-25T09:09:24;1.40;;;1.02;;
17947;SDS011;9099;47.958;11.366;2024-03-25T09:12:08;1.05;;;0.80;;
17947;SDS011;9099;47.958;11.366;2024-03-25T09:14:34;1.25;;;0.80;;
17947;SDS011;9099;47.958;11.366;2024-03-25T09:17:07;1.05;;;1.00;;
17947;SDS011;9099;47.958;11.366;2024-03-25T09:19:33;1.02;;;0.90;;
17947;SDS011;9099;47.958;11.366;2024-03-25T09:21:59;1.05;;;0.88;;
17947;SDS011;9099;47.958;11.366;2024-03-25T09:24:25;0.90;;;0.90;;
17947;SDS011;9099;47.958;11.366;2024-03-25T09:26:51;1.55;;;1.10;;
17947;SDS011;9099;47.958;11.366;2024-03-25T09:29:17;1.40;;;1.13;;
17947;SDS011;9099;47.958;11.366;2024-03-25T09:31:43;0.95;;;0.85;;
17947;SDS011;9099;47.958;11.366;2024-03-25T09:34:10;0.90;;;0.90;;
17947;SDS011;9099;47.958;11.366;2024-03-25T09:39:58;1.23;;;0.90;;
17947;SDS011;9099;47.958;11.366;2024-03-25T09:42:25;1.30;;;1.20;;
17947;SDS011;9099;47.958;11.366;2024-03-25T09:44:53;1.60;;;1.02;;
17947;SDS011;9099;47.958;11.366;2024-03-25T09:47:20;0.80;;;0.70;;
17947;SDS011;9099;47.958;11.366;2024-03-25T09:49:47;1.10;;;1.00;;
17947;SDS011;9099;47.958;11.366;2024-03-25T09:52:14;1.45;;;1.15;;
17947;SDS011;9099;47.958;11.366;2024-03-25T09:54:40;1.50;;;1.20;;
17947;SDS011;9099;47.958;11.366;2024-03-25T09:57:06;0.80;;;0.80;;
17947;SDS011;9099;47.958;11.366;2024-03-25T09:59:33;1.33;;;0.98;;
17947;SDS011;9099;47.958;11.366;2024-03-25T10:01:59;1.33;;;0.93;;
17947;SDS011;9099;47.958;11.366;2024-03-25T10:04:27;1.23;;;0.98;;
17947;SDS011;9099;47.958;11.366;2024-03-25T10:06:54;1.05;;;0.90;;
17947;SDS011;9099;47.958;11.366;2024-03-25T10:09:20;1.50;;;1.08;;
17947;SDS011;9099;47.958;11.366;2024-03-25T10:11:47;1.52;;;0.90;;
17947;SDS011;9099;47.958;11.366;2024-03-25T10:14:14;1.25;;;0.90;;
17947;SDS011;9099;47.958;11.366;2024-03-25T10:16:41;1.00;;;0.90;;
17947;SDS011;9099;47.958;11.366;2024-03-25T10:19:07;0.82;;;0.82;;
17947;SDS011;9099;47.958;11.366;2024-03-25T10:21:33;1.17;;;1.00;;
17947;SDS011;9099;47.958;11.366;2024-03-25T10:24:00;1.15;;;0.80;;
17947;SDS011;9099;47.958;11.366;2024-03-25T10:26:27;1.10;;;1.10;;
17947;SDS011;9099;47.958;11.366;2024-03-25T10:29:00;3.00;;;1.10;;
17947;SDS011;9099;47.958;11.366;2024-03-25T10:31:28;0.93;;;0.88;;
17947;SDS011;9099;47.958;11.366;2024-03-25T10:33:54;1.52;;;0.68;;
17947;SDS011;9099;47.958;11.366;2024-03-25T10:36:20;1.52;;;0.65;;
17947;SDS011;9099;47.958;11.366;2024-03-25T10:38:52;1.38;;;0.90;;
17947;SDS011;9099;47.958;11.366;2024-03-25T10:41:22;1.35;;;0.70;;
17947;SDS011;9099;47.958;11.366;2024-03-25T10:43:49;1.80;;;0.85;;
17947;SDS011;9099;47.958;11.366;2024-03-25T10:46:18;1.08;;;0.77;;
17947;SDS011;9099;47.958;11.366;2024-03-25T10:48:52;2.80;;;1.13;;
17947;SDS011;9099;47.958;11.366;2024-03-25T10:51:23;4.32;;;0.90;;
17947;SDS011;9099;47.958;11.366;2024-03-25T10:53:51;0.80;;;0.80;;
17947;SDS011;9099;47.958;11.366;2024-03-25T10:56:19;0.65;;;0.65;;
17947;SDS011;9099;47.958;11.366;2024-03-25T10:58:48;0.93;;;0.70;;
17947;SDS011;9099;47.958;11.366;2024-03-25T11:01:14;0.95;;;0.85;;
17947;SDS011;9099;47.958;11.366;2024-03-25T11:03:42;0.80;;;0.77;;
17947;SDS011;9099;47.958;11.366;2024-03-25T11:06:09;0.95;;;0.82;;
17947;SDS011;9099;47.958;11.366;2024-03-25T11:08:36;0.70;;;0.70;;
17947;SDS011;9099;47.958;11.366;2024-03-25T11:11:02;1.13;;;0.75;;
17947;SDS011;9099;47.958;11.366;2024-03-25T11:13:29;0.98;;;0.57;;
17947;SDS011;9099;47.958;11.366;2024-03-25T11:15:57;0.57;;;0.52;;
17947;SDS011;9099;47.958;11.366;2024-03-25T11:18:24;2.13;;;0.90;;
17947;SDS011;9099;47.958;11.366;2024-03-25T11:21:00;0.60;;;0.60;;
17947;SDS011;9099;47.958;11.366;2024-03-25T11:23:26;0.77;;;0.77;;
17947;SDS011;9099;47.958;11.366;2024-03-25T11:26:00;1.13;;;0.80;;
17947;SDS011;9099;47.958;11.366;2024-03-25T11:28:26;0.80;;;0.80;;
17947;SDS011;9099;47.958;11.366;2024-03-25T11:30:54;0.50;;;0.50;;
17947;SDS011;9099;47.958;11.366;2024-03-25T11:33:21;0.60;;;0.60;;
17947;SDS011;9099;47.958;11.366;2024-03-25T11:35:47;1.73;;;0.80;;
17947;SDS011;9099;47.958;11.366;2024-03-25T11:38:13;0.57;;;0.57;;
17947;SDS011;9099;47.958;11.366;2024-03-25T11:40:40;1.08;;;0.63;;
17947;SDS011;9099;47.958;11.366;2024-03-25T11:43:08;0.82;;;0.77;;
17947;SDS011;9099;47.958;11.366;2024-03-25T11:45:34;0.47;;;0.47;;
17947;SDS011;9099;47.958;11.366;2024-03-25T11:48:03;1.15;;;0.60;;
17947;SDS011;9099;47.958;11.366;2024-03-25T11:50:29;0.60;;;0.60;;
17947;SDS011;9099;47.958;11.366;2024-03-25T11:52:55;0.50;;;0.50;;
17947;SDS011;9099;47.958;11.366;2024-03-25T11:55:21;0.52;;;0.52;;
17947;SDS011;9099;47.958;11.366;2024-03-25T11:57:54;0.75;;;0.60;;
17947;SDS011;9099;47.958;11.366;2024-03-25T12:00:20;0.90;;;0.60;;
17947;SDS011;9099;47.958;11.366;2024-03-25T12:02:46;0.60;;;0.50;;
17947;SDS011;9099;47.958;11.366;2024-03-25T12:05:14;0.50;;;0.50;;
17947;SDS011;9099;47.958;11.366;2024-03-25T12:07:40;0.70;;;0.50;;
17947;SDS011;9099;47.958;11.366;2024-03-25T12:10:06;1.23;;;0.77;;
17947;SDS011;9099;47.958;11.366;2024-03-25T12:12:51;0.57;;;0.47;;
17947;SDS011;9099;47.958;11.366;2024-03-25T12:15:17;0.85;;;0.57;;
17947;SDS011;9099;47.958;11.366;2024-03-25T12:17:43;0.80;;;0.50;;
17947;SDS011;9099;47.958;11.366;2024-03-25T12:20:10;0.40;;;0.40;;
17947;SDS011;9099;47.958;11.366;2024-03-25T12:22:37;0.40;;;0.40;;
17947;SDS011;9099;47.958;11.366;2024-03-25T12:25:04;0.73;;;0.60;;
17947;SDS011;9099;47.958;11.366;2024-03-25T12:27:31;0.63;;;0.50;;
17947;SDS011;9099;47.958;11.366;2024-03-25T12:29:58;0.50;;;0.50;;
17947;SDS011;9099;47.958;11.366;2024-03-25T12:32:32;0.65;;;0.55;;
17947;SDS011;9099;47.958;11.366;2024-03-25T12:35:01;1.05;;;0.65;;
17947;SDS011;9099;47.958;11.366;2024-03-25T12:37:28;0.60;;;0.60;;
17947;SDS011;9099;47.958;11.366;2024-03-25T12:39:55;0.70;;;0.52;;
17947;SDS011;9099;47.958;11.366;2024-03-25T12:42:21;0.50;;;0.35;;
17947;SDS011;9099;47.958;11.366;2024-03-25T12:44:47;0.85;;;0.40;;
17947;SDS011;9099;47.958;11.366;2024-03-25T12:47:13;1.20;;;0.70;;
17947;SDS011;9099;47.958;11.366;2024-03-25T12:49:39;0.40;;;0.40;;
17947;SDS011;9099;47.958;11.366;2024-03-25T12:52:05;0.68;;;0.68;;
17947;SDS011;9099;47.958;11.366;2024-03-25T12:54:32;0.60;;;0.60;;
17947;SDS011;9099;47.958;11.366;2024-03-25T12:56:59;0.65;;;0.50;;
17947;SDS011;9099;47.958;11.366;2024-03-25T12:59:25;0.57;;;0.30;;
17947;SDS011;9099;47.958;11.366;2024-03-25T13:01:52;0.68;;;0.68;;
17947;SDS011;9099;47.958;11.366;2024-03-25T13:04:18;0.45;;;0.43;;
17947;SDS011;9099;47.958;11.366;2024-03-25T13:06:43;1.13;;;0.65;;
17947;SDS011;9099;47.958;11.366;2024-03-25T13:09:09;0.82;;;0.50;;
17947;SDS011;9099;47.958;11.366;2024-03-25T13:11:35;0.63;;;0.60;;
17947;SDS011;9099;47.958;11.366;2024-03-25T13:14:04;1.23;;;0.60;;
17947;SDS011;9099;47.958;11.366;2024-03-25T13:16:30;0.65;;;0.50;;
17947;SDS011;9099;47.958;11.366;2024-03-25T13:18:56;0.75;;;0.60;;
17947;SDS011;9099;47.958;11.366;2024-03-25T13:21:22;0.73;;;0.50;;
17947;SDS011;9099;47.958;11.366;2024-03-25T13:23:48;0.65;;;0.52;;
17947;SDS011;9099;47.958;11.366;2024-03-25T13:26:14;0.68;;;0.55;;
17947;SDS011;9099;47.958;11.366;2024-03-25T13:28:40;0.60;;;0.60;;
17947;SDS011;9099;47.958;11.366;2024-03-25T13:31:07;0.55;;;0.50;;
17947;SDS011;9099;47.958;11.366;2024-03-25T13:33:33;0.80;;;0.65;;
17947;SDS011;9099;47.958;11.366;2024-03-25T13:35:59;0.40;;;0.40;;
17947;SDS011;9099;47.958;11.366;2024-03-25T13:38:25;0.60;;;0.50;;
17947;SDS011;9099;47.958;11.366;2024-03-25T13:40:51;0.65;;;0.50;;
17947;SDS011;9099;47.958;11.366;2024-03-25T13:43:17;0.57;;;0.40;;
17947;SDS011;9099;47.958;11.366;2024-03-25T13:45:46;0.55;;;0.40;;
17947;SDS011;9099;47.958;11.366;2024-03-25T13:48:14;0.52;;;0.50;;
17947;SDS011;9099;47.958;11.366;2024-03-25T13:50:40;0.95;;;0.63;;
17947;SDS011;9099;47.958;11.366;2024-03-25T13:53:06;1.55;;;0.40;;
17947;SDS011;9099;47.958;11.366;2024-03-25T13:55:32;1.00;;;0.40;;
17947;SDS011;9099;47.958;11.366;2024-03-25T13:57:58;0.43;;;0.40;;
17947;SDS011;9099;47.958;11.366;2024-03-25T14:00:24;1.02;;;0.50;;
17947;SDS011;9099;47.958;11.366;2024-03-25T14:02:51;0.30;;;0.30;;
17947;SDS011;9099;47.958;11.366;2024-03-25T14:05:18;0.98;;;0.40;;
17947;SDS011;9099;47.958;11.366;2024-03-25T14:07:44;0.60;;;0.57;;
17947;SDS011;9099;47.958;11.366;2024-03-25T14:10:10;1.17;;;1.17;;
17947;SDS011;9099;47.958;11.366;2024-03-25T14:12:36;0.80;;;0.50;;
17947;SDS011;9099;47.958;11.366;2024-03-25T14:15:02;0.60;;;0.50;;
17947;SDS011;9099;47.958;11.366;2024-03-25T14:17:28;0.50;;;0.50;;
17947;SDS011;9099;47.958;11.366;2024-03-25T14:19:55;0.70;;;0.60;;
17947;SDS011;9099;47.958;11.366;2024-03-25T14:22:23;0.32;;;0.32;;
17947;SDS011;9099;47.958;11.366;2024-03-25T14:24:49;0.95;;;0.65;;
17947;SDS011;9099;47.958;11.366;2024-03-25T14:27:15;0.80;;;0.75;;
17947;SDS011;9099;47.958;11.366;2024-03-25T14:29:41;0.40;;;0.40;;
17947;SDS011;9099;47.958;11.366;2024-03-25T14:32:07;0.65;;;0.40;;
17947;SDS011;9099;47.958;11.366;2024-03-25T14:34:33;0.60;;;0.50;;
17947;SDS011;9099;47.958;11.366;2024-03-25T14:36:59;0.50;;;0.50;;
17947;SDS011;9099;47.958;11.366;2024-03-25T14:39:27;0.40;;;0.40;;
17947;SDS011;9099;47.958;11.366;2024-03-25T14:41:52;0.55;;;0.55;;
17947;SDS011;9099;47.958;11.366;2024-03-25T14:44:18;0.75;;;0.45;;
17947;SDS011;9099;47.958;11.366;2024-03-25T14:46:44;0.60;;;0.43;;
17947;SDS011;9099;47.958;11.366;2024-03-25T14:49:10;2.75;;;0.40;;